sensor_id;sensor_type;location;lat;lon;timestamp;P1;durP1;ratioP1;P2;durP2;ratioP2
13208;SDS011;6669;42.678;23.332;2022-10-31T00:01:01;2.20;;;1.95;;
13208;SDS011;6669;42.678;23.332;2022-10-31T00:03:36;2.50;;;1.92;;
13208;SDS011;6669;42.678;23.332;2022-10-31T00:06:04;2.67;;;1.90;;
13208;SDS011;6669;42.678;23.332;2022-10-31T00:08:32;2.10;;;1.80;;
13208;SDS011;6669;42.678;23.332;2022-10-31T00:11:00;2.17;;;1.73;;
13208;SDS011;6669;42.678;23.332;2022-10-31T00:13:28;2.10;;;1.90;;
13208;SDS011;6669;42.678;23.332;2022-10-31T00:15:57;2.33;;;2.13;;
13208;SDS011;6669;42.678;23.332;2022-10-31T00:18:25;2.15;;;1.92;;
13208;SDS011;6669;42.678;23.332;2022-10-31T00:20:58;2.72;;;2.00;;
13208;SDS011;6669;42.678;23.332;2022-10-31T00:23:26;2.88;;;1.90;;
13208;SDS011;6669;42.678;23.332;2022-10-31T00:25:59;2.45;;;1.88;;
13208;SDS011;6669;42.678;23.332;2022-10-31T00:28:28;3.00;;;1.88;;
13208;SDS011;6669;42.678;23.332;2022-10-31T00:31:00;1.98;;;1.80;;
13208;SDS011;6669;42.678;23.332;2022-10-31T00:33:28;2.58;;;1.92;;
13208;SDS011;6669;42.678;23.332;2022-10-31T00:35:56;2.72;;;1.95;;
13208;SDS011;6669;42.678;23.332;2022-10-31T00:38:24;5.80;;;1.92;;
13208;SDS011;6669;42.678;23.332;2022-10-31T00:40:52;3.33;;;1.98;;
13208;SDS011;6669;42.678;23.332;2022-10-31T00:43:20;2.40;;;2.03;;
13208;SDS011;6669;42.678;23.332;2022-10-31T00:45:48;1.70;;;1.60;;
13208;SDS011;6669;42.678;23.332;2022-10-31T00:48:17;2.05;;;1.90;;
13208;SDS011;6669;42.678;23.332;2022-10-31T00:50:45;2.60;;;1.95;;
13208;SDS011;6669;42.678;23.332;2022-10-31T00:53:13;2.88;;;1.80;;
13208;SDS011;6669;42.678;23.332;2022-10-31T00:55:41;2.63;;;1.98;;
13208;SDS011;6669;42.678;23.332;2022-10-31T00:58:09;2.78;;;1.58;;
13208;SDS011;6669;42.678;23.332;2022-10-31T01:00:37;2.10;;;1.90;;
13208;SDS011;6669;42.678;23.332;2022-10-31T01:03:05;1.75;;;1.65;;
13208;SDS011;6669;42.678;23.332;2022-10-31T01:05:35;2.88;;;2.03;;
13208;SDS011;6669;42.678;23.332;2022-10-31T01:08:03;2.40;;;1.70;;
13208;SDS011;6669;42.678;23.332;2022-10-31T01:10:31;2.00;;;1.80;;
13208;SDS011;6669;42.678;23.332;2022-10-31T01:12:59;3.35;;;2.30;;
13208;SDS011;6669;42.678;23.332;2022-10-31T01:15:27;2.63;;;2.15;;
13208;SDS011;6669;42.678;23.332;2022-10-31T01:17:55;2.75;;;1.90;;
13208;SDS011;6669;42.678;23.332;2022-10-31T01:20:23;2.38;;;1.98;;
13208;SDS011;6669;42.678;23.332;2022-10-31T01:22:53;2.50;;;2.00;;
13208;SDS011;6669;42.678;23.332;2022-10-31T01:25:20;5.78;;;2.42;;
13208;SDS011;6669;42.678;23.332;2022-10-31T01:27:48;4.32;;;2.17;;
13208;SDS011;6669;42.678;23.332;2022-10-31T01:30:16;3.33;;;1.70;;
13208;SDS011;6669;42.678;23.332;2022-10-31T01:32:44;4.15;;;1.95;;
13208;SDS011;6669;42.678;23.332;2022-10-31T01:35:12;2.60;;;2.00;;
13208;SDS011;6669;42.678;23.332;2022-10-31T01:37:40;3.13;;;1.80;;
13208;SDS011;6669;42.678;23.332;2022-10-31T01:40:10;2.72;;;2.00;;
13208;SDS011;6669;42.678;23.332;2022-10-31T01:42:38;2.78;;;1.80;;
13208;SDS011;6669;42.678;23.332;2022-10-31T01:45:09;2.03;;;1.83;;
13208;SDS011;6669;42.678;23.332;2022-10-31T01:47:41;2.35;;;2.13;;
13208;SDS011;6669;42.678;23.332;2022-10-31T01:50:14;2.45;;;1.95;;
13208;SDS011;6669;42.678;23.332;2022-10-31T01:52:50;2.75;;;2.13;;
13208;SDS011;6669;42.678;23.332;2022-10-31T01:55:22;3.13;;;2.00;;
13208;SDS011;6669;42.678;23.332;2022-10-31T01:57:57;2.53;;;1.98;;
13208;SDS011;6669;42.678;23.332;2022-10-31T02:00:30;3.20;;;2.22;;
13208;SDS011;6669;42.678;23.332;2022-10-31T02:02:58;2.83;;;2.45;;
13208;SDS011;6669;42.678;23.332;2022-10-31T02:05:27;3.10;;;2.30;;
13208;SDS011;6669;42.678;23.332;2022-10-31T02:07:57;3.65;;;2.63;;
13208;SDS011;6669;42.678;23.332;2022-10-31T02:10:30;2.70;;;2.22;;
13208;SDS011;6669;42.678;23.332;2022-10-31T02:13:01;2.25;;;2.00;;
13208;SDS011;6669;42.678;23.332;2022-10-31T02:15:31;3.58;;;2.25;;
13208;SDS011;6669;42.678;23.332;2022-10-31T02:18:00;2.50;;;2.30;;
13208;SDS011;6669;42.678;23.332;2022-10-31T02:20:29;2.58;;;2.33;;
13208;SDS011;6669;42.678;23.332;2022-10-31T02:23:10;3.40;;;2.83;;
13208;SDS011;6669;42.678;23.332;2022-10-31T02:25:59;3.20;;;2.20;;
13208;SDS011;6669;42.678;23.332;2022-10-31T02:28:45;6.57;;;2.67;;
13208;SDS011;6669;42.678;23.332;2022-10-31T02:31:30;3.63;;;2.47;;
13208;SDS011;6669;42.678;23.332;2022-10-31T02:34:09;2.65;;;2.10;;
13208;SDS011;6669;42.678;23.332;2022-10-31T02:36:46;3.17;;;2.30;;
13208;SDS011;6669;42.678;23.332;2022-10-31T02:39:22;7.40;;;2.53;;
13208;SDS011;6669;42.678;23.332;2022-10-31T02:41:57;4.20;;;2.50;;
13208;SDS011;6669;42.678;23.332;2022-10-31T02:44:34;2.47;;;2.20;;
13208;SDS011;6669;42.678;23.332;2022-10-31T02:47:08;3.42;;;2.70;;
13208;SDS011;6669;42.678;23.332;2022-10-31T02:49:40;3.15;;;2.20;;
13208;SDS011;6669;42.678;23.332;2022-10-31T02:52:13;4.25;;;2.67;;
13208;SDS011;6669;42.678;23.332;2022-10-31T02:54:45;2.67;;;2.45;;
13208;SDS011;6669;42.678;23.332;2022-10-31T02:57:14;2.60;;;2.40;;
13208;SDS011;6669;42.678;23.332;2022-10-31T02:59:45;3.42;;;2.63;;
13208;SDS011;6669;42.678;23.332;2022-10-31T03:02:20;3.67;;;2.72;;
13208;SDS011;6669;42.678;23.332;2022-10-31T03:08:09;3.08;;;2.35;;
13208;SDS011;6669;42.678;23.332;2022-10-31T03:10:45;3.65;;;2.72;;
13208;SDS011;6669;42.678;23.332;2022-10-31T03:13:21;2.70;;;2.45;;
13208;SDS011;6669;42.678;23.332;2022-10-31T03:16:01;3.95;;;2.83;;
13208;SDS011;6669;42.678;23.332;2022-10-31T03:18:39;5.53;;;3.25;;
13208;SDS011;6669;42.678;23.332;2022-10-31T03:21:11;3.60;;;2.78;;
13208;SDS011;6669;42.678;23.332;2022-10-31T03:23:43;3.05;;;2.75;;
13208;SDS011;6669;42.678;23.332;2022-10-31T03:26:13;3.33;;;2.70;;
13208;SDS011;6669;42.678;23.332;2022-10-31T03:28:43;3.05;;;2.35;;
13208;SDS011;6669;42.678;23.332;2022-10-31T03:31:15;5.32;;;2.92;;
13208;SDS011;6669;42.678;23.332;2022-10-31T03:33:47;3.65;;;2.70;;
13208;SDS011;6669;42.678;23.332;2022-10-31T03:36:18;5.10;;;3.20;;
13208;SDS011;6669;42.678;23.332;2022-10-31T03:38:47;4.40;;;3.15;;
13208;SDS011;6669;42.678;23.332;2022-10-31T03:41:17;4.07;;;2.78;;
13208;SDS011;6669;42.678;23.332;2022-10-31T03:43:52;3.30;;;2.80;;
13208;SDS011;6669;42.678;23.332;2022-10-31T03:46:25;3.78;;;3.33;;
13208;SDS011;6669;42.678;23.332;2022-10-31T03:48:56;4.80;;;3.25;;
13208;SDS011;6669;42.678;23.332;2022-10-31T03:51:25;4.63;;;3.17;;
13208;SDS011;6669;42.678;23.332;2022-10-31T03:54:01;4.28;;;3.40;;
13208;SDS011;6669;42.678;23.332;2022-10-31T03:56:36;5.13;;;2.92;;
13208;SDS011;6669;42.678;23.332;2022-10-31T03:59:07;4.47;;;3.40;;
13208;SDS011;6669;42.678;23.332;2022-10-31T04:01:43;4.60;;;3.75;;
13208;SDS011;6669;42.678;23.332;2022-10-31T04:04:17;5.10;;;3.67;;
13208;SDS011;6669;42.678;23.332;2022-10-31T04:06:47;7.07;;;4.25;;
13208;SDS011;6669;42.678;23.332;2022-10-31T04:09:17;4.45;;;3.40;;
13208;SDS011;6669;42.678;23.332;2022-10-31T04:11:48;4.25;;;3.53;;
13208;SDS011;6669;42.678;23.332;2022-10-31T04:14:19;4.25;;;3.35;;
13208;SDS011;6669;42.678;23.332;2022-10-31T04:16:48;5.43;;;3.97;;
13208;SDS011;6669;42.678;23.332;2022-10-31T04:19:18;3.95;;;3.38;;
13208;SDS011;6669;42.678;23.332;2022-10-31T04:21:46;4.82;;;3.90;;
13208;SDS011;6669;42.678;23.332;2022-10-31T04:24:14;5.80;;;3.92;;
13208;SDS011;6669;42.678;23.332;2022-10-31T04:26:42;5.60;;;3.70;;
13208;SDS011;6669;42.678;23.332;2022-10-31T04:29:10;5.63;;;3.60;;
13208;SDS011;6669;42.678;23.332;2022-10-31T04:31:38;4.35;;;3.40;;
13208;SDS011;6669;42.678;23.332;2022-10-31T04:34:05;6.97;;;3.75;;
13208;SDS011;6669;42.678;23.332;2022-10-31T04:36:35;4.80;;;3.45;;
13208;SDS011;6669;42.678;23.332;2022-10-31T04:39:03;6.80;;;3.85;;
13208;SDS011;6669;42.678;23.332;2022-10-31T04:41:31;5.35;;;3.45;;
13208;SDS011;6669;42.678;23.332;2022-10-31T04:44:00;6.93;;;3.45;;
13208;SDS011;6669;42.678;23.332;2022-10-31T04:46:28;4.57;;;3.60;;
13208;SDS011;6669;42.678;23.332;2022-10-31T04:48:56;6.38;;;3.95;;
13208;SDS011;6669;42.678;23.332;2022-10-31T04:51:24;5.10;;;3.80;;
13208;SDS011;6669;42.678;23.332;2022-10-31T04:53:54;5.30;;;3.75;;
13208;SDS011;6669;42.678;23.332;2022-10-31T04:56:24;5.10;;;3.67;;
13208;SDS011;6669;42.678;23.332;2022-10-31T04:58:52;5.07;;;4.00;;
13208;SDS011;6669;42.678;23.332;2022-10-31T05:01:20;4.93;;;3.78;;
13208;SDS011;6669;42.678;23.332;2022-10-31T05:03:48;5.25;;;3.75;;
13208;SDS011;6669;42.678;23.332;2022-10-31T05:06:16;4.68;;;3.50;;
13208;SDS011;6669;42.678;23.332;2022-10-31T05:08:44;6.80;;;4.00;;
13208;SDS011;6669;42.678;23.332;2022-10-31T05:11:14;5.07;;;3.90;;
13208;SDS011;6669;42.678;23.332;2022-10-31T05:13:42;5.10;;;4.07;;
13208;SDS011;6669;42.678;23.332;2022-10-31T05:16:10;4.97;;;4.00;;
13208;SDS011;6669;42.678;23.332;2022-10-31T05:18:38;4.82;;;3.53;;
13208;SDS011;6669;42.678;23.332;2022-10-31T05:21:06;9.40;;;6.10;;
13208;SDS011;6669;42.678;23.332;2022-10-31T05:23:34;7.15;;;4.82;;
13208;SDS011;6669;42.678;23.332;2022-10-31T05:26:02;6.35;;;4.38;;
13208;SDS011;6669;42.678;23.332;2022-10-31T05:28:31;5.03;;;4.35;;
13208;SDS011;6669;42.678;23.332;2022-10-31T05:30:59;5.68;;;3.72;;
13208;SDS011;6669;42.678;23.332;2022-10-31T05:33:27;5.20;;;4.00;;
13208;SDS011;6669;42.678;23.332;2022-10-31T05:35:55;6.65;;;3.70;;
13208;SDS011;6669;42.678;23.332;2022-10-31T05:38:23;6.22;;;4.18;;
13208;SDS011;6669;42.678;23.332;2022-10-31T05:40:53;5.00;;;3.90;;
13208;SDS011;6669;42.678;23.332;2022-10-31T05:43:23;7.13;;;4.85;;
13208;SDS011;6669;42.678;23.332;2022-10-31T05:45:53;9.60;;;4.65;;
13208;SDS011;6669;42.678;23.332;2022-10-31T05:48:21;5.30;;;4.30;;
13208;SDS011;6669;42.678;23.332;2022-10-31T05:50:49;6.72;;;3.70;;
13208;SDS011;6669;42.678;23.332;2022-10-31T05:53:19;9.13;;;7.32;;
13208;SDS011;6669;42.678;23.332;2022-10-31T05:55:47;9.07;;;7.00;;
13208;SDS011;6669;42.678;23.332;2022-10-31T05:58:15;6.32;;;5.10;;
13208;SDS011;6669;42.678;23.332;2022-10-31T06:00:43;7.78;;;4.72;;
13208;SDS011;6669;42.678;23.332;2022-10-31T06:03:13;5.70;;;4.50;;
13208;SDS011;6669;42.678;23.332;2022-10-31T06:05:41;6.50;;;4.72;;
13208;SDS011;6669;42.678;23.332;2022-10-31T06:08:15;6.20;;;4.63;;
13208;SDS011;6669;42.678;23.332;2022-10-31T06:10:43;5.80;;;4.53;;
13208;SDS011;6669;42.678;23.332;2022-10-31T06:13:12;7.18;;;5.60;;
13208;SDS011;6669;42.678;23.332;2022-10-31T06:15:41;8.75;;;4.68;;
13208;SDS011;6669;42.678;23.332;2022-10-31T06:18:11;7.88;;;5.50;;
13208;SDS011;6669;42.678;23.332;2022-10-31T06:20:40;5.93;;;4.65;;
13208;SDS011;6669;42.678;23.332;2022-10-31T06:23:08;5.27;;;4.77;;
13208;SDS011;6669;42.678;23.332;2022-10-31T06:25:39;5.22;;;4.70;;
13208;SDS011;6669;42.678;23.332;2022-10-31T06:28:07;7.50;;;4.93;;
13208;SDS011;6669;42.678;23.332;2022-10-31T06:30:38;4.32;;;3.88;;
13208;SDS011;6669;42.678;23.332;2022-10-31T06:33:09;5.70;;;4.53;;
13208;SDS011;6669;42.678;23.332;2022-10-31T06:35:39;6.55;;;4.82;;
13208;SDS011;6669;42.678;23.332;2022-10-31T06:38:12;7.25;;;4.53;;
13208;SDS011;6669;42.678;23.332;2022-10-31T06:40:40;5.40;;;4.57;;
13208;SDS011;6669;42.678;23.332;2022-10-31T06:43:08;7.60;;;4.70;;
13208;SDS011;6669;42.678;23.332;2022-10-31T06:45:37;7.72;;;5.15;;
13208;SDS011;6669;42.678;23.332;2022-10-31T06:48:08;5.57;;;4.60;;
13208;SDS011;6669;42.678;23.332;2022-10-31T06:50:44;7.57;;;4.63;;
13208;SDS011;6669;42.678;23.332;2022-10-31T06:53:14;8.95;;;4.90;;
13208;SDS011;6669;42.678;23.332;2022-10-31T06:55:42;7.57;;;4.68;;
13208;SDS011;6669;42.678;23.332;2022-10-31T06:58:10;7.25;;;4.72;;
13208;SDS011;6669;42.678;23.332;2022-10-31T07:00:38;5.80;;;4.70;;
13208;SDS011;6669;42.678;23.332;2022-10-31T07:03:09;6.53;;;4.90;;
13208;SDS011;6669;42.678;23.332;2022-10-31T07:05:38;8.93;;;5.55;;
13208;SDS011;6669;42.678;23.332;2022-10-31T07:08:10;6.05;;;5.03;;
13208;SDS011;6669;42.678;23.332;2022-10-31T07:10:42;20.52;;;15.90;;
13208;SDS011;6669;42.678;23.332;2022-10-31T07:13:17;6.63;;;5.93;;
13208;SDS011;6669;42.678;23.332;2022-10-31T07:15:48;6.38;;;5.50;;
13208;SDS011;6669;42.678;23.332;2022-10-31T07:18:16;8.68;;;6.68;;
13208;SDS011;6669;42.678;23.332;2022-10-31T07:20:44;7.53;;;6.00;;
13208;SDS011;6669;42.678;23.332;2022-10-31T07:23:13;7.60;;;5.53;;
13208;SDS011;6669;42.678;23.332;2022-10-31T07:25:41;7.25;;;5.70;;
13208;SDS011;6669;42.678;23.332;2022-10-31T07:28:09;6.55;;;5.90;;
13208;SDS011;6669;42.678;23.332;2022-10-31T07:30:37;8.88;;;6.10;;
13208;SDS011;6669;42.678;23.332;2022-10-31T07:33:06;7.85;;;5.97;;
13208;SDS011;6669;42.678;23.332;2022-10-31T07:35:35;8.68;;;6.32;;
13208;SDS011;6669;42.678;23.332;2022-10-31T07:38:07;9.32;;;6.30;;
13208;SDS011;6669;42.678;23.332;2022-10-31T07:40:37;10.15;;;6.80;;
13208;SDS011;6669;42.678;23.332;2022-10-31T07:43:06;8.68;;;6.45;;
13208;SDS011;6669;42.678;23.332;2022-10-31T07:45:39;8.30;;;6.13;;
13208;SDS011;6669;42.678;23.332;2022-10-31T07:48:08;9.55;;;7.25;;
13208;SDS011;6669;42.678;23.332;2022-10-31T07:50:35;14.45;;;10.80;;
13208;SDS011;6669;42.678;23.332;2022-10-31T07:53:04;12.15;;;8.68;;
13208;SDS011;6669;42.678;23.332;2022-10-31T07:55:33;9.15;;;6.07;;
13208;SDS011;6669;42.678;23.332;2022-10-31T07:58:04;7.55;;;6.65;;
13208;SDS011;6669;42.678;23.332;2022-10-31T08:00:33;9.70;;;6.65;;
13208;SDS011;6669;42.678;23.332;2022-10-31T08:03:03;7.35;;;6.35;;
13208;SDS011;6669;42.678;23.332;2022-10-31T08:05:33;7.20;;;6.07;;
13208;SDS011;6669;42.678;23.332;2022-10-31T08:08:02;9.65;;;6.85;;
13208;SDS011;6669;42.678;23.332;2022-10-31T08:10:30;9.52;;;6.70;;
13208;SDS011;6669;42.678;23.332;2022-10-31T08:12:59;7.97;;;6.47;;
13208;SDS011;6669;42.678;23.332;2022-10-31T08:15:30;8.90;;;6.60;;
13208;SDS011;6669;42.678;23.332;2022-10-31T08:17:58;7.80;;;6.68;;
13208;SDS011;6669;42.678;23.332;2022-10-31T08:20:27;7.47;;;6.38;;
13208;SDS011;6669;42.678;23.332;2022-10-31T08:22:55;9.20;;;6.93;;
13208;SDS011;6669;42.678;23.332;2022-10-31T08:25:25;9.13;;;6.60;;
13208;SDS011;6669;42.678;23.332;2022-10-31T08:27:59;8.88;;;6.53;;
13208;SDS011;6669;42.678;23.332;2022-10-31T08:30:30;12.00;;;7.13;;
13208;SDS011;6669;42.678;23.332;2022-10-31T08:33:00;11.80;;;6.90;;
13208;SDS011;6669;42.678;23.332;2022-10-31T08:35:30;10.55;;;6.97;;
13208;SDS011;6669;42.678;23.332;2022-10-31T08:37:59;8.20;;;6.75;;
13208;SDS011;6669;42.678;23.332;2022-10-31T08:40:28;9.40;;;6.90;;
13208;SDS011;6669;42.678;23.332;2022-10-31T08:42:57;12.50;;;7.00;;
13208;SDS011;6669;42.678;23.332;2022-10-31T08:45:26;7.95;;;7.03;;
13208;SDS011;6669;42.678;23.332;2022-10-31T08:48:00;10.85;;;7.28;;
13208;SDS011;6669;42.678;23.332;2022-10-31T08:50:30;8.85;;;6.88;;
13208;SDS011;6669;42.678;23.332;2022-10-31T08:52:59;9.23;;;6.72;;
13208;SDS011;6669;42.678;23.332;2022-10-31T08:55:32;8.55;;;6.90;;
13208;SDS011;6669;42.678;23.332;2022-10-31T08:58:02;8.63;;;6.95;;
13208;SDS011;6669;42.678;23.332;2022-10-31T09:00:31;8.38;;;7.13;;
13208;SDS011;6669;42.678;23.332;2022-10-31T09:03:01;9.43;;;7.38;;
13208;SDS011;6669;42.678;23.332;2022-10-31T09:05:33;12.43;;;7.53;;
13208;SDS011;6669;42.678;23.332;2022-10-31T09:08:02;9.88;;;7.28;;
13208;SDS011;6669;42.678;23.332;2022-10-31T09:10:31;11.90;;;7.70;;
13208;SDS011;6669;42.678;23.332;2022-10-31T09:13:01;9.77;;;6.32;;
13208;SDS011;6669;42.678;23.332;2022-10-31T09:15:33;8.27;;;6.68;;
13208;SDS011;6669;42.678;23.332;2022-10-31T09:18:04;8.43;;;6.35;;
13208;SDS011;6669;42.678;23.332;2022-10-31T09:20:32;7.13;;;5.88;;
13208;SDS011;6669;42.678;23.332;2022-10-31T09:23:03;8.13;;;5.28;;
13208;SDS011;6669;42.678;23.332;2022-10-31T09:25:32;7.13;;;5.30;;
13208;SDS011;6669;42.678;23.332;2022-10-31T09:28:01;7.63;;;5.43;;
13208;SDS011;6669;42.678;23.332;2022-10-31T09:30:32;7.15;;;5.93;;
13208;SDS011;6669;42.678;23.332;2022-10-31T09:33:02;7.53;;;5.72;;
13208;SDS011;6669;42.678;23.332;2022-10-31T09:35:34;5.95;;;4.93;;
13208;SDS011;6669;42.678;23.332;2022-10-31T09:38:02;6.07;;;4.55;;
13208;SDS011;6669;42.678;23.332;2022-10-31T09:40:32;6.47;;;5.25;;
13208;SDS011;6669;42.678;23.332;2022-10-31T09:43:12;7.45;;;4.70;;
13208;SDS011;6669;42.678;23.332;2022-10-31T09:45:53;6.10;;;4.70;;
13208;SDS011;6669;42.678;23.332;2022-10-31T09:51:23;6.43;;;4.63;;
13208;SDS011;6669;42.678;23.332;2022-10-31T09:53:58;5.47;;;3.95;;
13208;SDS011;6669;42.678;23.332;2022-10-31T09:56:29;5.13;;;3.90;;
13208;SDS011;6669;42.678;23.332;2022-10-31T09:58:59;8.27;;;4.35;;
13208;SDS011;6669;42.678;23.332;2022-10-31T10:01:38;6.70;;;3.97;;
13208;SDS011;6669;42.678;23.332;2022-10-31T10:04:29;6.32;;;3.88;;
13208;SDS011;6669;42.678;23.332;2022-10-31T10:07:02;4.25;;;3.65;;
13208;SDS011;6669;42.678;23.332;2022-10-31T10:09:40;4.20;;;3.67;;
13208;SDS011;6669;42.678;23.332;2022-10-31T10:12:10;4.35;;;3.53;;
13208;SDS011;6669;42.678;23.332;2022-10-31T10:14:47;5.60;;;3.40;;
13208;SDS011;6669;42.678;23.332;2022-10-31T10:17:32;2.97;;;2.67;;
13208;SDS011;6669;42.678;23.332;2022-10-31T10:20:13;4.50;;;3.80;;
13208;SDS011;6669;42.678;23.332;2022-10-31T10:22:58;10.25;;;3.20;;
13208;SDS011;6669;42.678;23.332;2022-10-31T10:25:39;6.57;;;3.38;;
13208;SDS011;6669;42.678;23.332;2022-10-31T10:28:11;3.90;;;3.22;;
13208;SDS011;6669;42.678;23.332;2022-10-31T10:30:48;3.63;;;3.03;;
13208;SDS011;6669;42.678;23.332;2022-10-31T10:33:20;3.60;;;2.70;;
13208;SDS011;6669;42.678;23.332;2022-10-31T10:35:53;3.83;;;3.05;;
13208;SDS011;6669;42.678;23.332;2022-10-31T10:38:27;4.10;;;2.65;;
13208;SDS011;6669;42.678;23.332;2022-10-31T10:40:58;5.28;;;2.80;;
13208;SDS011;6669;42.678;23.332;2022-10-31T10:43:30;4.75;;;2.47;;
13208;SDS011;6669;42.678;23.332;2022-10-31T10:49:12;2.65;;;2.25;;
13208;SDS011;6669;42.678;23.332;2022-10-31T10:51:50;3.22;;;2.10;;
13208;SDS011;6669;42.678;23.332;2022-10-31T10:54:55;2.40;;;2.10;;
13208;SDS011;6669;42.678;23.332;2022-10-31T10:57:32;4.05;;;2.10;;
13208;SDS011;6669;42.678;23.332;2022-10-31T11:00:17;3.03;;;2.13;;
13208;SDS011;6669;42.678;23.332;2022-10-31T11:02:47;3.60;;;2.33;;
13208;SDS011;6669;42.678;23.332;2022-10-31T11:05:20;3.65;;;1.88;;
13208;SDS011;6669;42.678;23.332;2022-10-31T11:07:53;3.20;;;1.83;;
13208;SDS011;6669;42.678;23.332;2022-10-31T11:10:21;3.20;;;2.40;;
13208;SDS011;6669;42.678;23.332;2022-10-31T11:13:04;3.58;;;2.30;;
13208;SDS011;6669;42.678;23.332;2022-10-31T11:15:49;2.92;;;2.22;;
13208;SDS011;6669;42.678;23.332;2022-10-31T11:18:22;1.98;;;1.77;;
13208;SDS011;6669;42.678;23.332;2022-10-31T11:20:53;4.50;;;2.20;;
13208;SDS011;6669;42.678;23.332;2022-10-31T11:23:24;3.78;;;2.00;;
13208;SDS011;6669;42.678;23.332;2022-10-31T11:25:54;2.35;;;2.13;;
13208;SDS011;6669;42.678;23.332;2022-10-31T11:28:23;2.30;;;2.10;;
13208;SDS011;6669;42.678;23.332;2022-10-31T11:30:53;2.83;;;2.13;;
13208;SDS011;6669;42.678;23.332;2022-10-31T11:33:28;2.22;;;2.03;;
13208;SDS011;6669;42.678;23.332;2022-10-31T11:35:58;5.53;;;2.13;;
13208;SDS011;6669;42.678;23.332;2022-10-31T11:38:31;3.92;;;2.03;;
13208;SDS011;6669;42.678;23.332;2022-10-31T11:41:06;2.33;;;2.13;;
13208;SDS011;6669;42.678;23.332;2022-10-31T11:43:39;2.17;;;1.92;;
13208;SDS011;6669;42.678;23.332;2022-10-31T11:46:17;4.90;;;2.10;;
13208;SDS011;6669;42.678;23.332;2022-10-31T11:48:48;2.95;;;2.03;;
13208;SDS011;6669;42.678;23.332;2022-10-31T11:51:22;3.72;;;2.40;;
13208;SDS011;6669;42.678;23.332;2022-10-31T11:53:53;3.25;;;2.30;;
13208;SDS011;6669;42.678;23.332;2022-10-31T11:56:37;1.75;;;1.65;;
13208;SDS011;6669;42.678;23.332;2022-10-31T11:59:14;3.25;;;2.17;;
13208;SDS011;6669;42.678;23.332;2022-10-31T12:01:48;5.07;;;1.75;;
13208;SDS011;6669;42.678;23.332;2022-10-31T12:04:18;3.63;;;1.60;;
13208;SDS011;6669;42.678;23.332;2022-10-31T12:06:50;1.73;;;1.63;;
13208;SDS011;6669;42.678;23.332;2022-10-31T12:09:22;3.25;;;1.88;;
13208;SDS011;6669;42.678;23.332;2022-10-31T12:12:05;2.15;;;1.70;;
13208;SDS011;6669;42.678;23.332;2022-10-31T12:14:51;3.03;;;1.70;;
13208;SDS011;6669;42.678;23.332;2022-10-31T12:17:29;2.13;;;1.75;;
13208;SDS011;6669;42.678;23.332;2022-10-31T12:20:10;3.97;;;1.80;;
13208;SDS011;6669;42.678;23.332;2022-10-31T12:22:47;2.92;;;1.90;;
13208;SDS011;6669;42.678;23.332;2022-10-31T12:25:29;4.70;;;2.03;;
13208;SDS011;6669;42.678;23.332;2022-10-31T12:28:17;3.70;;;1.60;;
13208;SDS011;6669;42.678;23.332;2022-10-31T12:31:17;3.17;;;1.90;;
13208;SDS011;6669;42.678;23.332;2022-10-31T12:33:58;3.88;;;1.95;;
13208;SDS011;6669;42.678;23.332;2022-10-31T12:36:41;4.30;;;2.58;;
13208;SDS011;6669;42.678;23.332;2022-10-31T12:39:24;3.70;;;2.13;;
13208;SDS011;6669;42.678;23.332;2022-10-31T12:42:00;1.83;;;1.73;;
13208;SDS011;6669;42.678;23.332;2022-10-31T12:47:38;2.92;;;2.55;;
13208;SDS011;6669;42.678;23.332;2022-10-31T12:50:29;3.88;;;2.00;;
13208;SDS011;6669;42.678;23.332;2022-10-31T12:53:13;1.60;;;1.50;;
13208;SDS011;6669;42.678;23.332;2022-10-31T12:55:54;3.03;;;2.53;;
13208;SDS011;6669;42.678;23.332;2022-10-31T12:58:31;1.90;;;1.65;;
13208;SDS011;6669;42.678;23.332;2022-10-31T13:01:06;2.70;;;1.98;;
13208;SDS011;6669;42.678;23.332;2022-10-31T13:03:39;3.28;;;2.05;;
13208;SDS011;6669;42.678;23.332;2022-10-31T13:06:18;5.07;;;2.17;;
13208;SDS011;6669;42.678;23.332;2022-10-31T13:08:49;2.80;;;1.92;;
13208;SDS011;6669;42.678;23.332;2022-10-31T13:11:21;2.78;;;1.92;;
13208;SDS011;6669;42.678;23.332;2022-10-31T13:13:57;4.05;;;1.70;;
13208;SDS011;6669;42.678;23.332;2022-10-31T13:16:30;3.40;;;1.88;;
13208;SDS011;6669;42.678;23.332;2022-10-31T13:19:04;2.80;;;2.10;;
13208;SDS011;6669;42.678;23.332;2022-10-31T13:21:39;2.13;;;1.92;;
13208;SDS011;6669;42.678;23.332;2022-10-31T13:24:13;3.83;;;1.73;;
13208;SDS011;6669;42.678;23.332;2022-10-31T13:26:47;3.75;;;1.90;;
13208;SDS011;6669;42.678;23.332;2022-10-31T13:29:22;3.90;;;2.13;;
13208;SDS011;6669;42.678;23.332;2022-10-31T13:31:58;3.80;;;2.40;;
13208;SDS011;6669;42.678;23.332;2022-10-31T13:34:28;2.20;;;2.00;;
13208;SDS011;6669;42.678;23.332;2022-10-31T13:37:04;2.78;;;1.85;;
13208;SDS011;6669;42.678;23.332;2022-10-31T13:39:45;2.50;;;1.90;;
13208;SDS011;6669;42.678;23.332;2022-10-31T13:42:21;2.92;;;2.00;;
13208;SDS011;6669;42.678;23.332;2022-10-31T13:45:08;2.75;;;2.22;;
13208;SDS011;6669;42.678;23.332;2022-10-31T13:47:40;6.72;;;2.00;;
13208;SDS011;6669;42.678;23.332;2022-10-31T13:50:19;2.25;;;2.05;;
13208;SDS011;6669;42.678;23.332;2022-10-31T13:52:49;2.72;;;1.88;;
13208;SDS011;6669;42.678;23.332;2022-10-31T13:55:36;3.47;;;2.30;;
13208;SDS011;6669;42.678;23.332;2022-10-31T13:58:19;1.95;;;1.80;;
13208;SDS011;6669;42.678;23.332;2022-10-31T14:01:01;2.75;;;2.05;;
13208;SDS011;6669;42.678;23.332;2022-10-31T14:03:39;2.85;;;2.13;;
13208;SDS011;6669;42.678;23.332;2022-10-31T14:06:39;1.92;;;1.63;;
13208;SDS011;6669;42.678;23.332;2022-10-31T14:09:20;2.30;;;1.85;;
13208;SDS011;6669;42.678;23.332;2022-10-31T14:11:51;4.32;;;2.10;;
13208;SDS011;6669;42.678;23.332;2022-10-31T14:14:20;3.17;;;2.00;;
13208;SDS011;6669;42.678;23.332;2022-10-31T14:16:56;5.13;;;2.22;;
13208;SDS011;6669;42.678;23.332;2022-10-31T14:19:25;3.30;;;2.30;;
13208;SDS011;6669;42.678;23.332;2022-10-31T14:21:54;3.03;;;2.40;;
13208;SDS011;6669;42.678;23.332;2022-10-31T14:24:32;3.85;;;2.00;;
13208;SDS011;6669;42.678;23.332;2022-10-31T14:27:03;2.67;;;2.17;;
13208;SDS011;6669;42.678;23.332;2022-10-31T14:29:53;2.78;;;2.35;;
13208;SDS011;6669;42.678;23.332;2022-10-31T14:32:22;3.75;;;2.42;;
13208;SDS011;6669;42.678;23.332;2022-10-31T14:34:53;6.65;;;3.50;;
13208;SDS011;6669;42.678;23.332;2022-10-31T14:37:44;3.75;;;3.08;;
13208;SDS011;6669;42.678;23.332;2022-10-31T14:40:27;4.72;;;2.55;;
13208;SDS011;6669;42.678;23.332;2022-10-31T14:46:04;2.55;;;2.17;;
13208;SDS011;6669;42.678;23.332;2022-10-31T14:48:44;4.38;;;2.33;;
13208;SDS011;6669;42.678;23.332;2022-10-31T14:51:32;4.22;;;2.20;;
13208;SDS011;6669;42.678;23.332;2022-10-31T14:54:05;9.13;;;3.33;;
13208;SDS011;6669;42.678;23.332;2022-10-31T14:56:36;5.40;;;4.00;;
13208;SDS011;6669;42.678;23.332;2022-10-31T14:59:09;7.93;;;3.53;;
13208;SDS011;6669;42.678;23.332;2022-10-31T15:01:47;4.88;;;3.10;;
13208;SDS011;6669;42.678;23.332;2022-10-31T15:04:25;5.13;;;2.75;;
13208;SDS011;6669;42.678;23.332;2022-10-31T15:06:57;4.53;;;2.83;;
13208;SDS011;6669;42.678;23.332;2022-10-31T15:09:30;6.68;;;3.55;;
13208;SDS011;6669;42.678;23.332;2022-10-31T15:11:59;7.00;;;3.20;;
13208;SDS011;6669;42.678;23.332;2022-10-31T15:14:29;4.65;;;2.63;;
13208;SDS011;6669;42.678;23.332;2022-10-31T15:16:59;8.18;;;3.03;;
13208;SDS011;6669;42.678;23.332;2022-10-31T15:19:32;4.60;;;3.08;;
13208;SDS011;6669;42.678;23.332;2022-10-31T15:22:03;6.28;;;3.30;;
13208;SDS011;6669;42.678;23.332;2022-10-31T15:24:32;5.55;;;4.15;;
13208;SDS011;6669;42.678;23.332;2022-10-31T15:27:03;5.10;;;3.83;;
13208;SDS011;6669;42.678;23.332;2022-10-31T15:29:31;9.90;;;4.05;;
13208;SDS011;6669;42.678;23.332;2022-10-31T15:32:01;5.05;;;3.40;;
13208;SDS011;6669;42.678;23.332;2022-10-31T15:34:46;6.80;;;3.80;;